sensor_id;sensor_type;location;lat;lon;timestamp;P1;durP1;ratioP1;P2;durP2;ratioP2
30096;SDS011;16915;51.466;3.610;2023-02-17T00:01:11;47.95;;;20.75;;
30096;SDS011;16915;51.466;3.610;2023-02-17T00:03:39;47.70;;;18.67;;
30096;SDS011;16915;51.466;3.610;2023-02-17T00:06:06;41.58;;;18.98;;
30096;SDS011;16915;51.466;3.610;2023-02-17T00:08:32;43.22;;;19.10;;
30096;SDS011;16915;51.466;3.610;2023-02-17T00:10:58;42.75;;;18.17;;
30096;SDS011;16915;51.466;3.610;2023-02-17T00:13:24;39.30;;;19.27;;
30096;SDS011;16915;51.466;3.610;2023-02-17T00:15:50;44.45;;;19.00;;
30096;SDS011;16915;51.466;3.610;2023-02-17T00:18:15;35.28;;;18.45;;
30096;SDS011;16915;51.466;3.610;2023-02-17T00:20:41;42.78;;;19.50;;
30096;SDS011;16915;51.466;3.610;2023-02-17T00:23:06;49.13;;;18.85;;
30096;SDS011;16915;51.466;3.610;2023-02-17T00:25:32;42.33;;;19.13;;
30096;SDS011;16915;51.466;3.610;2023-02-17T00:27:57;39.67;;;17.52;;
30096;SDS011;16915;51.466;3.610;2023-02-17T00:30:23;40.45;;;17.77;;
30096;SDS011;16915;51.466;3.610;2023-02-17T00:32:49;39.17;;;17.38;;
30096;SDS011;16915;51.466;3.610;2023-02-17T00:35:14;44.67;;;18.05;;
30096;SDS011;16915;51.466;3.610;2023-02-17T00:37:40;38.75;;;15.75;;
30096;SDS011;16915;51.466;3.610;2023-02-17T00:40:09;28.60;;;14.18;;
30096;SDS011;16915;51.466;3.610;2023-02-17T00:42:36;27.77;;;14.05;;
30096;SDS011;16915;51.466;3.610;2023-02-17T00:45:01;35.10;;;14.15;;
30096;SDS011;16915;51.466;3.610;2023-02-17T00:47:27;26.90;;;13.65;;
30096;SDS011;16915;51.466;3.610;2023-02-17T00:49:53;30.92;;;13.65;;
30096;SDS011;16915;51.466;3.610;2023-02-17T00:52:18;28.42;;;13.57;;
30096;SDS011;16915;51.466;3.610;2023-02-17T00:54:44;25.85;;;12.77;;
30096;SDS011;16915;51.466;3.610;2023-02-17T00:57:10;30.95;;;14.20;;
30096;SDS011;16915;51.466;3.610;2023-02-17T00:59:35;33.08;;;14.63;;
30096;SDS011;16915;51.466;3.610;2023-02-17T01:02:01;33.03;;;14.43;;
30096;SDS011;16915;51.466;3.610;2023-02-17T01:04:28;35.20;;;15.00;;
30096;SDS011;16915;51.466;3.610;2023-02-17T01:06:53;36.67;;;15.27;;
30096;SDS011;16915;51.466;3.610;2023-02-17T01:09:19;34.97;;;15.02;;
30096;SDS011;16915;51.466;3.610;2023-02-17T01:11:44;37.08;;;15.75;;
30096;SDS011;16915;51.466;3.610;2023-02-17T01:14:11;34.53;;;16.13;;
30096;SDS011;16915;51.466;3.610;2023-02-17T01:16:38;36.08;;;16.92;;
30096;SDS011;16915;51.466;3.610;2023-02-17T01:19:06;39.97;;;18.02;;
30096;SDS011;16915;51.466;3.610;2023-02-17T01:21:35;36.83;;;17.10;;
30096;SDS011;16915;51.466;3.610;2023-02-17T01:24:02;41.28;;;16.88;;
30096;SDS011;16915;51.466;3.610;2023-02-17T01:26:29;34.47;;;15.18;;
30096;SDS011;16915;51.466;3.610;2023-02-17T01:28:56;29.25;;;14.07;;
30096;SDS011;16915;51.466;3.610;2023-02-17T01:31:22;28.58;;;13.85;;
30096;SDS011;16915;51.466;3.610;2023-02-17T01:33:50;28.70;;;12.77;;
30096;SDS011;16915;51.466;3.610;2023-02-17T01:36:17;23.00;;;11.70;;
30096;SDS011;16915;51.466;3.610;2023-02-17T01:38:44;25.95;;;11.30;;
30096;SDS011;16915;51.466;3.610;2023-02-17T01:41:12;25.92;;;11.77;;
30096;SDS011;16915;51.466;3.610;2023-02-17T01:43:40;30.45;;;13.18;;
30096;SDS011;16915;51.466;3.610;2023-02-17T01:46:07;28.63;;;13.07;;
30096;SDS011;16915;51.466;3.610;2023-02-17T01:48:43;29.70;;;13.10;;
30096;SDS011;16915;51.466;3.610;2023-02-17T01:51:17;31.83;;;13.10;;
30096;SDS011;16915;51.466;3.610;2023-02-17T01:53:49;27.13;;;12.98;;
30096;SDS011;16915;51.466;3.610;2023-02-17T01:56:20;31.90;;;12.88;;
30096;SDS011;16915;51.466;3.610;2023-02-17T01:58:52;28.67;;;12.68;;
30096;SDS011;16915;51.466;3.610;2023-02-17T02:01:21;29.17;;;12.65;;
30096;SDS011;16915;51.466;3.610;2023-02-17T02:03:47;28.30;;;12.55;;
30096;SDS011;16915;51.466;3.610;2023-02-17T02:06:15;29.10;;;11.93;;
30096;SDS011;16915;51.466;3.610;2023-02-17T02:08:58;33.28;;;12.25;;
30096;SDS011;16915;51.466;3.610;2023-02-17T02:11:26;28.02;;;12.15;;
30096;SDS011;16915;51.466;3.610;2023-02-17T02:13:51;35.13;;;12.43;;
30096;SDS011;16915;51.466;3.610;2023-02-17T02:16:22;30.00;;;11.50;;
30096;SDS011;16915;51.466;3.610;2023-02-17T02:19:05;24.50;;;10.93;;
30096;SDS011;16915;51.466;3.610;2023-02-17T02:36:04;25.70;;;8.15;;
30096;SDS011;16915;51.466;3.610;2023-02-17T02:38:40;24.85;;;8.38;;
30096;SDS011;16915;51.466;3.610;2023-02-17T02:43:53;22.02;;;8.80;;
30096;SDS011;16915;51.466;3.610;2023-02-17T02:46:19;25.02;;;10.55;;
30096;SDS011;16915;51.466;3.610;2023-02-17T02:48:45;29.27;;;8.95;;
30096;SDS011;16915;51.466;3.610;2023-02-17T02:51:16;24.27;;;9.88;;
30096;SDS011;16915;51.466;3.610;2023-02-17T02:56:31;21.75;;;10.00;;
30096;SDS011;16915;51.466;3.610;2023-02-17T02:59:22;22.60;;;11.18;;
30096;SDS011;16915;51.466;3.610;2023-02-17T03:04:56;26.58;;;11.00;;
30096;SDS011;16915;51.466;3.610;2023-02-17T03:07:27;26.65;;;11.23;;
30096;SDS011;16915;51.466;3.610;2023-02-17T03:09:58;27.08;;;11.52;;
30096;SDS011;16915;51.466;3.610;2023-02-17T03:12:24;30.23;;;12.23;;
30096;SDS011;16915;51.466;3.610;2023-02-17T03:14:56;30.23;;;12.18;;
30096;SDS011;16915;51.466;3.610;2023-02-17T03:17:31;32.17;;;11.52;;
30096;SDS011;16915;51.466;3.610;2023-02-17T03:19:57;34.70;;;12.63;;
30096;SDS011;16915;51.466;3.610;2023-02-17T03:22:27;31.98;;;11.52;;
30096;SDS011;16915;51.466;3.610;2023-02-17T03:24:57;28.75;;;11.35;;
30096;SDS011;16915;51.466;3.610;2023-02-17T03:27:25;30.90;;;12.70;;
30096;SDS011;16915;51.466;3.610;2023-02-17T03:29:51;23.90;;;10.23;;
30096;SDS011;16915;51.466;3.610;2023-02-17T03:32:17;24.52;;;10.43;;
30096;SDS011;16915;51.466;3.610;2023-02-17T03:34:43;28.45;;;10.98;;
30096;SDS011;16915;51.466;3.610;2023-02-17T03:37:09;19.33;;;9.10;;
30096;SDS011;16915;51.466;3.610;2023-02-17T03:39:34;20.25;;;8.98;;
30096;SDS011;16915;51.466;3.610;2023-02-17T03:42:01;25.55;;;9.23;;
30096;SDS011;16915;51.466;3.610;2023-02-17T03:44:26;24.20;;;9.10;;
30096;SDS011;16915;51.466;3.610;2023-02-17T03:46:52;22.42;;;9.88;;
30096;SDS011;16915;51.466;3.610;2023-02-17T03:49:17;19.10;;;9.85;;
30096;SDS011;16915;51.466;3.610;2023-02-17T03:51:43;19.40;;;8.35;;
30096;SDS011;16915;51.466;3.610;2023-02-17T03:54:09;17.70;;;8.55;;
30096;SDS011;16915;51.466;3.610;2023-02-17T03:56:34;14.27;;;7.88;;
30096;SDS011;16915;51.466;3.610;2023-02-17T03:59:00;21.65;;;8.55;;
30096;SDS011;16915;51.466;3.610;2023-02-17T04:01:25;19.55;;;8.27;;
30096;SDS011;16915;51.466;3.610;2023-02-17T04:03:51;20.23;;;9.45;;
30096;SDS011;16915;51.466;3.610;2023-02-17T04:06:16;19.80;;;8.50;;
30096;SDS011;16915;51.466;3.610;2023-02-17T04:08:42;20.83;;;8.05;;
30096;SDS011;16915;51.466;3.610;2023-02-17T04:11:08;16.80;;;7.65;;
30096;SDS011;16915;51.466;3.610;2023-02-17T04:13:34;25.85;;;9.43;;
30096;SDS011;16915;51.466;3.610;2023-02-17T04:16:01;20.13;;;8.68;;
30096;SDS011;16915;51.466;3.610;2023-02-17T04:18:28;22.38;;;9.02;;
30096;SDS011;16915;51.466;3.610;2023-02-17T04:20:55;21.63;;;9.15;;
30096;SDS011;16915;51.466;3.610;2023-02-17T04:23:21;24.27;;;10.27;;
30096;SDS011;16915;51.466;3.610;2023-02-17T04:25:46;26.73;;;9.98;;
30096;SDS011;16915;51.466;3.610;2023-02-17T04:28:13;24.15;;;9.30;;
30096;SDS011;16915;51.466;3.610;2023-02-17T04:30:41;21.92;;;10.07;;
30096;SDS011;16915;51.466;3.610;2023-02-17T04:33:08;23.13;;;9.93;;
30096;SDS011;16915;51.466;3.610;2023-02-17T04:35:34;25.27;;;10.77;;
30096;SDS011;16915;51.466;3.610;2023-02-17T04:37:59;25.58;;;9.82;;
30096;SDS011;16915;51.466;3.610;2023-02-17T04:40:25;22.08;;;9.85;;
30096;SDS011;16915;51.466;3.610;2023-02-17T04:42:50;24.90;;;9.90;;
30096;SDS011;16915;51.466;3.610;2023-02-17T04:45:16;25.92;;;10.40;;
30096;SDS011;16915;51.466;3.610;2023-02-17T04:47:42;26.65;;;10.98;;
30096;SDS011;16915;51.466;3.610;2023-02-17T04:50:07;23.75;;;10.30;;
30096;SDS011;16915;51.466;3.610;2023-02-17T04:52:34;21.60;;;9.63;;
30096;SDS011;16915;51.466;3.610;2023-02-17T04:54:59;19.83;;;10.10;;
30096;SDS011;16915;51.466;3.610;2023-02-17T04:57:25;22.75;;;8.07;;
30096;SDS011;16915;51.466;3.610;2023-02-17T04:59:51;22.33;;;8.40;;
30096;SDS011;16915;51.466;3.610;2023-02-17T05:02:16;18.98;;;7.88;;
30096;SDS011;16915;51.466;3.610;2023-02-17T05:04:42;17.67;;;7.28;;
30096;SDS011;16915;51.466;3.610;2023-02-17T05:07:07;22.88;;;7.90;;
30096;SDS011;16915;51.466;3.610;2023-02-17T05:09:35;17.90;;;8.07;;
30096;SDS011;16915;51.466;3.610;2023-02-17T05:12:01;17.33;;;7.38;;
30096;SDS011;16915;51.466;3.610;2023-02-17T05:14:27;19.70;;;7.55;;
30096;SDS011;16915;51.466;3.610;2023-02-17T05:16:53;17.17;;;7.40;;
30096;SDS011;16915;51.466;3.610;2023-02-17T05:19:19;20.23;;;7.47;;
30096;SDS011;16915;51.466;3.610;2023-02-17T05:21:44;20.52;;;8.10;;
30096;SDS011;16915;51.466;3.610;2023-02-17T05:24:10;22.30;;;7.88;;
30096;SDS011;16915;51.466;3.610;2023-02-17T05:26:35;20.98;;;7.75;;
30096;SDS011;16915;51.466;3.610;2023-02-17T05:29:01;18.85;;;8.05;;
30096;SDS011;16915;51.466;3.610;2023-02-17T05:31:27;19.45;;;8.32;;
30096;SDS011;16915;51.466;3.610;2023-02-17T05:33:53;19.00;;;8.65;;
30096;SDS011;16915;51.466;3.610;2023-02-17T05:36:19;18.35;;;8.05;;
30096;SDS011;16915;51.466;3.610;2023-02-17T05:38:44;17.90;;;7.60;;
30096;SDS011;16915;51.466;3.610;2023-02-17T05:41:13;12.35;;;7.70;;
30096;SDS011;16915;51.466;3.610;2023-02-17T05:43:39;15.63;;;8.68;;
30096;SDS011;16915;51.466;3.610;2023-02-17T05:46:04;20.65;;;7.78;;
30096;SDS011;16915;51.466;3.610;2023-02-17T05:48:30;14.60;;;7.70;;
30096;SDS011;16915;51.466;3.610;2023-02-17T05:50:56;13.10;;;7.85;;
30096;SDS011;16915;51.466;3.610;2023-02-17T05:53:22;14.45;;;7.53;;
30096;SDS011;16915;51.466;3.610;2023-02-17T05:55:47;13.82;;;7.55;;
30096;SDS011;16915;51.466;3.610;2023-02-17T05:58:13;15.52;;;7.40;;
30096;SDS011;16915;51.466;3.610;2023-02-17T06:00:39;15.20;;;8.23;;
30096;SDS011;16915;51.466;3.610;2023-02-17T06:03:04;20.13;;;8.27;;
30096;SDS011;16915;51.466;3.610;2023-02-17T06:05:30;18.88;;;8.73;;
30096;SDS011;16915;51.466;3.610;2023-02-17T06:07:55;15.07;;;7.93;;
30096;SDS011;16915;51.466;3.610;2023-02-17T06:10:21;12.23;;;7.38;;
30096;SDS011;16915;51.466;3.610;2023-02-17T06:12:46;15.90;;;8.43;;
30096;SDS011;16915;51.466;3.610;2023-02-17T06:15:12;14.65;;;7.22;;
30096;SDS011;16915;51.466;3.610;2023-02-17T06:17:38;16.00;;;7.78;;
30096;SDS011;16915;51.466;3.610;2023-02-17T06:20:03;14.95;;;7.32;;
30096;SDS011;16915;51.466;3.610;2023-02-17T06:22:30;10.93;;;6.72;;
30096;SDS011;16915;51.466;3.610;2023-02-17T06:24:55;17.50;;;7.68;;
30096;SDS011;16915;51.466;3.610;2023-02-17T06:27:21;16.45;;;7.85;;
30096;SDS011;16915;51.466;3.610;2023-02-17T06:29:47;13.55;;;7.90;;
30096;SDS011;16915;51.466;3.610;2023-02-17T06:32:12;14.40;;;7.93;;
30096;SDS011;16915;51.466;3.610;2023-02-17T06:34:38;16.52;;;7.78;;
30096;SDS011;16915;51.466;3.610;2023-02-17T06:37:03;14.25;;;7.05;;
30096;SDS011;16915;51.466;3.610;2023-02-17T06:39:29;18.25;;;7.53;;
30096;SDS011;16915;51.466;3.610;2023-02-17T06:41:54;13.30;;;7.30;;
30096;SDS011;16915;51.466;3.610;2023-02-17T06:44:20;10.32;;;6.88;;
30096;SDS011;16915;51.466;3.610;2023-02-17T06:46:46;11.50;;;5.80;;
30096;SDS011;16915;51.466;3.610;2023-02-17T06:49:12;14.80;;;5.82;;
30096;SDS011;16915;51.466;3.610;2023-02-17T06:51:38;8.95;;;6.05;;
30096;SDS011;16915;51.466;3.610;2023-02-17T06:54:04;10.20;;;5.63;;
30096;SDS011;16915;51.466;3.610;2023-02-17T06:56:29;10.05;;;6.63;;
30096;SDS011;16915;51.466;3.610;2023-02-17T06:58:55;11.30;;;6.03;;
30096;SDS011;16915;51.466;3.610;2023-02-17T07:01:24;10.52;;;6.78;;
30096;SDS011;16915;51.466;3.610;2023-02-17T07:03:53;12.02;;;6.32;;
30096;SDS011;16915;51.466;3.610;2023-02-17T07:06:20;10.65;;;6.90;;
30096;SDS011;16915;51.466;3.610;2023-02-17T07:08:47;11.05;;;6.22;;
30096;SDS011;16915;51.466;3.610;2023-02-17T07:11:13;10.77;;;6.93;;
30096;SDS011;16915;51.466;3.610;2023-02-17T07:13:39;12.65;;;6.70;;
30096;SDS011;16915;51.466;3.610;2023-02-17T07:16:05;10.00;;;6.03;;
30096;SDS011;16915;51.466;3.610;2023-02-17T07:18:32;10.45;;;5.68;;
30096;SDS011;16915;51.466;3.610;2023-02-17T07:20:58;10.23;;;5.80;;
30096;SDS011;16915;51.466;3.610;2023-02-17T07:23:24;9.30;;;6.13;;
30096;SDS011;16915;51.466;3.610;2023-02-17T07:25:49;10.23;;;6.63;;
30096;SDS011;16915;51.466;3.610;2023-02-17T07:28:15;15.73;;;6.72;;
30096;SDS011;16915;51.466;3.610;2023-02-17T07:30:40;9.95;;;6.15;;
30096;SDS011;16915;51.466;3.610;2023-02-17T07:33:07;12.07;;;6.82;;
30096;SDS011;16915;51.466;3.610;2023-02-17T07:35:33;9.13;;;5.65;;
30096;SDS011;16915;51.466;3.610;2023-02-17T07:37:59;15.05;;;6.32;;
30096;SDS011;16915;51.466;3.610;2023-02-17T07:40:25;11.80;;;5.57;;
30096;SDS011;16915;51.466;3.610;2023-02-17T07:42:51;9.07;;;5.57;;
30096;SDS011;16915;51.466;3.610;2023-02-17T07:45:17;9.27;;;5.10;;
30096;SDS011;16915;51.466;3.610;2023-02-17T07:47:43;10.15;;;5.65;;
30096;SDS011;16915;51.466;3.610;2023-02-17T07:50:09;12.82;;;6.43;;
30096;SDS011;16915;51.466;3.610;2023-02-17T07:52:35;7.25;;;5.28;;
30096;SDS011;16915;51.466;3.610;2023-02-17T07:55:01;10.40;;;6.18;;
30096;SDS011;16915;51.466;3.610;2023-02-17T07:57:27;8.57;;;5.65;;
30096;SDS011;16915;51.466;3.610;2023-02-17T07:59:53;10.10;;;5.28;;
30096;SDS011;16915;51.466;3.610;2023-02-17T08:02:19;8.57;;;5.20;;
30096;SDS011;16915;51.466;3.610;2023-02-17T08:04:44;9.05;;;5.72;;
30096;SDS011;16915;51.466;3.610;2023-02-17T08:07:10;13.77;;;6.20;;
30096;SDS011;16915;51.466;3.610;2023-02-17T08:09:36;11.98;;;5.50;;
30096;SDS011;16915;51.466;3.610;2023-02-17T08:12:20;11.35;;;5.85;;
30096;SDS011;16915;51.466;3.610;2023-02-17T08:15:05;15.48;;;5.95;;
30096;SDS011;16915;51.466;3.610;2023-02-17T08:17:33;13.82;;;6.80;;
30096;SDS011;16915;51.466;3.610;2023-02-17T08:19:58;12.77;;;6.50;;
30096;SDS011;16915;51.466;3.610;2023-02-17T08:22:25;14.82;;;6.47;;
30096;SDS011;16915;51.466;3.610;2023-02-17T08:24:50;15.32;;;7.40;;
30096;SDS011;16915;51.466;3.610;2023-02-17T08:27:16;18.08;;;7.63;;
30096;SDS011;16915;51.466;3.610;2023-02-17T08:29:43;13.95;;;6.90;;
30096;SDS011;16915;51.466;3.610;2023-02-17T08:32:09;16.95;;;8.15;;
30096;SDS011;16915;51.466;3.610;2023-02-17T08:34:35;15.25;;;7.95;;
30096;SDS011;16915;51.466;3.610;2023-02-17T08:37:01;20.45;;;8.55;;
30096;SDS011;16915;51.466;3.610;2023-02-17T08:39:28;14.85;;;8.85;;
30096;SDS011;16915;51.466;3.610;2023-02-17T08:41:54;17.55;;;8.38;;
30096;SDS011;16915;51.466;3.610;2023-02-17T08:44:20;17.92;;;8.27;;
30096;SDS011;16915;51.466;3.610;2023-02-17T08:46:46;22.45;;;8.40;;
30096;SDS011;16915;51.466;3.610;2023-02-17T08:49:14;15.48;;;8.52;;
30096;SDS011;16915;51.466;3.610;2023-02-17T08:51:41;15.73;;;8.13;;
30096;SDS011;16915;51.466;3.610;2023-02-17T08:54:07;17.30;;;8.02;;
30096;SDS011;16915;51.466;3.610;2023-02-17T08:56:35;23.00;;;8.35;;
30096;SDS011;16915;51.466;3.610;2023-02-17T08:59:02;25.40;;;7.90;;
30096;SDS011;16915;51.466;3.610;2023-02-17T09:01:29;16.55;;;8.60;;
30096;SDS011;16915;51.466;3.610;2023-02-17T09:03:55;20.73;;;9.50;;
30096;SDS011;16915;51.466;3.610;2023-02-17T09:06:21;18.60;;;8.70;;
30096;SDS011;16915;51.466;3.610;2023-02-17T09:08:47;16.98;;;8.60;;
30096;SDS011;16915;51.466;3.610;2023-02-17T09:11:15;16.88;;;7.95;;
30096;SDS011;16915;51.466;3.610;2023-02-17T09:13:43;13.95;;;8.43;;
30096;SDS011;16915;51.466;3.610;2023-02-17T09:16:09;18.70;;;9.02;;
30096;SDS011;16915;51.466;3.610;2023-02-17T09:18:35;23.13;;;10.05;;
30096;SDS011;16915;51.466;3.610;2023-02-17T09:21:08;18.75;;;8.43;;
30096;SDS011;16915;51.466;3.610;2023-02-17T09:23:35;17.30;;;9.45;;
30096;SDS011;16915;51.466;3.610;2023-02-17T09:26:05;18.85;;;9.18;;
30096;SDS011;16915;51.466;3.610;2023-02-17T09:28:33;20.17;;;9.10;;
30096;SDS011;16915;51.466;3.610;2023-02-17T09:33:48;15.77;;;8.23;;
30096;SDS011;16915;51.466;3.610;2023-02-17T09:36:18;12.50;;;7.03;;
30096;SDS011;16915;51.466;3.610;2023-02-17T09:38:45;16.15;;;7.25;;
30096;SDS011;16915;51.466;3.610;2023-02-17T09:43:42;17.88;;;8.95;;
30096;SDS011;16915;51.466;3.610;2023-02-17T09:46:10;18.50;;;7.50;;
30096;SDS011;16915;51.466;3.610;2023-02-17T09:48:40;13.65;;;8.05;;
30096;SDS011;16915;51.466;3.610;2023-02-17T09:51:21;14.00;;;7.50;;
30096;SDS011;16915;51.466;3.610;2023-02-17T09:54:20;16.08;;;7.80;;
30096;SDS011;16915;51.466;3.610;2023-02-17T09:56:56;10.85;;;6.88;;
30096;SDS011;16915;51.466;3.610;2023-02-17T10:01:56;13.38;;;8.43;;
30096;SDS011;16915;51.466;3.610;2023-02-17T10:04:34;20.00;;;8.95;;
30096;SDS011;16915;51.466;3.610;2023-02-17T10:07:07;16.45;;;8.60;;
30096;SDS011;16915;51.466;3.610;2023-02-17T10:09:56;14.13;;;8.55;;
30096;SDS011;16915;51.466;3.610;2023-02-17T10:12:33;16.50;;;9.48;;
30096;SDS011;16915;51.466;3.610;2023-02-17T10:15:10;17.63;;;9.40;;
30096;SDS011;16915;51.466;3.610;2023-02-17T10:18:05;17.73;;;9.88;;
30096;SDS011;16915;51.466;3.610;2023-02-17T10:20:45;16.57;;;9.47;;
30096;SDS011;16915;51.466;3.610;2023-02-17T10:23:14;16.40;;;8.25;;
30096;SDS011;16915;51.466;3.610;2023-02-17T10:31:09;18.90;;;8.32;;
30096;SDS011;16915;51.466;3.610;2023-02-17T10:33:59;20.73;;;8.02;;
30096;SDS011;16915;51.466;3.610;2023-02-17T10:36:31;30.88;;;8.23;;
30096;SDS011;16915;51.466;3.610;2023-02-17T10:39:27;17.67;;;7.22;;
30096;SDS011;16915;51.466;3.610;2023-02-17T10:42:00;14.38;;;7.43;;
30096;SDS011;16915;51.466;3.610;2023-02-17T10:44:27;45.30;;;9.88;;
30096;SDS011;16915;51.466;3.610;2023-02-17T10:46:55;31.05;;;7.75;;
30096;SDS011;16915;51.466;3.610;2023-02-17T10:49:35;16.20;;;5.10;;
30096;SDS011;16915;51.466;3.610;2023-02-17T10:52:16;22.65;;;5.35;;
30096;SDS011;16915;51.466;3.610;2023-02-17T10:54:48;12.43;;;4.25;;
30096;SDS011;16915;51.466;3.610;2023-02-17T10:57:19;16.45;;;4.63;;
30096;SDS011;16915;51.466;3.610;2023-02-17T10:59:47;18.02;;;5.45;;
30096;SDS011;16915;51.466;3.610;2023-02-17T11:02:16;10.38;;;4.15;;
30096;SDS011;16915;51.466;3.610;2023-02-17T11:04:42;17.65;;;5.18;;
30096;SDS011;16915;51.466;3.610;2023-02-17T11:07:11;10.25;;;3.30;;
30096;SDS011;16915;51.466;3.610;2023-02-17T11:09:39;10.45;;;3.25;;
30096;SDS011;16915;51.466;3.610;2023-02-17T11:12:11;19.70;;;3.03;;
30096;SDS011;16915;51.466;3.610;2023-02-17T11:14:42;12.70;;;2.30;;
30096;SDS011;16915;51.466;3.610;2023-02-17T11:17:14;10.00;;;2.35;;
30096;SDS011;16915;51.466;3.610;2023-02-17T11:20:24;13.95;;;2.95;;
30096;SDS011;16915;51.466;3.610;2023-02-17T11:25:29;8.95;;;1.98;;
30096;SDS011;16915;51.466;3.610;2023-02-17T11:27:57;9.48;;;2.13;;
30096;SDS011;16915;51.466;3.610;2023-02-17T11:30:25;9.75;;;2.22;;
30096;SDS011;16915;51.466;3.610;2023-02-17T11:32:52;18.02;;;2.28;;
30096;SDS011;16915;51.466;3.610;2023-02-17T11:35:25;11.10;;;1.98;;
30096;SDS011;16915;51.466;3.610;2023-02-17T11:37:59;14.00;;;2.17;;
30096;SDS011;16915;51.466;3.610;2023-02-17T11:40:28;9.20;;;2.33;;
30096;SDS011;16915;51.466;3.610;2023-02-17T11:42:58;9.32;;;2.50;;
30096;SDS011;16915;51.466;3.610;2023-02-17T11:45:27;15.20;;;2.03;;
30096;SDS011;16915;51.466;3.610;2023-02-17T11:56:22;14.23;;;1.98;;
30096;SDS011;16915;51.466;3.610;2023-02-17T12:02:03;10.00;;;2.17;;
30096;SDS011;16915;51.466;3.610;2023-02-17T12:13:23;15.32;;;2.83;;
30096;SDS011;16915;51.466;3.610;2023-02-17T12:16:10;8.13;;;2.38;;
30096;SDS011;16915;51.466;3.610;2023-02-17T12:24:38;8.85;;;4.30;;
30096;SDS011;16915;51.466;3.610;2023-02-17T12:27:31;14.50;;;5.35;;
30096;SDS011;16915;51.466;3.610;2023-02-17T12:30:06;10.65;;;4.93;;
30096;SDS011;16915;51.466;3.610;2023-02-17T12:35:55;10.43;;;4.97;;
30096;SDS011;16915;51.466;3.610;2023-02-17T12:38:26;10.93;;;4.65;;
30096;SDS011;16915;51.466;3.610;2023-02-17T12:44:31;10.30;;;3.90;;
30096;SDS011;16915;51.466;3.610;2023-02-17T12:46:46;10.10;;;3.83;;
30096;SDS011;16915;51.466;3.610;2023-02-17T12:57:15;7.57;;;3.63;;
30096;SDS011;16915;51.466;3.610;2023-02-17T12:59:45;9.10;;;3.63;;
30096;SDS011;16915;51.466;3.610;2023-02-17T13:02:16;8.68;;;3.83;;
30096;SDS011;16915;51.466;3.610;2023-02-17T13:04:46;7.82;;;2.92;;
30096;SDS011;16915;51.466;3.610;2023-02-17T13:10:34;7.00;;;3.90;;
30096;SDS011;16915;51.466;3.610;2023-02-17T13:16:00;10.90;;;3.60;;
30096;SDS011;16915;51.466;3.610;2023-02-17T13:18:32;10.90;;;3.83;;
30096;SDS011;16915;51.466;3.610;2023-02-17T13:23:41;11.10;;;3.15;;
30096;SDS011;16915;51.466;3.610;2023-02-17T13:28:45;9.20;;;4.32;;
30096;SDS011;16915;51.466;3.610;2023-02-17T13:31:13;9.23;;;2.78;;
30096;SDS011;16915;51.466;3.610;2023-02-17T13:33:42;10.15;;;3.13;;
30096;SDS011;16915;51.466;3.610;2023-02-17T13:36:18;18.23;;;2.65;;
30096;SDS011;16915;51.466;3.610;2023-02-17T13:39:00;8.82;;;2.60;;
30096;SDS011;16915;51.466;3.610;2023-02-17T13:41:28;10.07;;;2.53;;
30096;SDS011;16915;51.466;3.610;2023-02-17T13:43:58;11.18;;;2.85;;
30096;SDS011;16915;51.466;3.610;2023-02-17T13:46:44;12.10;;;2.88;;
30096;SDS011;16915;51.466;3.610;2023-02-17T13:49:18;12.52;;;2.67;;
30096;SDS011;16915;51.466;3.610;2023-02-17T13:51:46;11.07;;;2.30;;
30096;SDS011;16915;51.466;3.610;2023-02-17T13:54:21;12.10;;;1.92;;
30096;SDS011;16915;51.466;3.610;2023-02-17T13:56:50;10.73;;;1.98;;
30096;SDS011;16915;51.466;3.610;2023-02-17T13:59:22;16.38;;;2.70;;
30096;SDS011;16915;51.466;3.610;2023-02-17T14:01:49;14.07;;;1.85;;
30096;SDS011;16915;51.466;3.610;2023-02-17T14:04:26;10.60;;;1.90;;
30096;SDS011;16915;51.466;3.610;2023-02-17T14:06:58;13.52;;;1.95;;
30096;SDS011;16915;51.466;3.610;2023-02-17T14:09:28;23.80;;;2.30;;
30096;SDS011;16915;51.466;3.610;2023-02-17T14:12:00;11.23;;;2.55;;
30096;SDS011;16915;51.466;3.610;2023-02-17T14:14:28;16.83;;;2.55;;
30096;SDS011;16915;51.466;3.610;2023-02-17T14:16:58;13.73;;;2.30;;
30096;SDS011;16915;51.466;3.610;2023-02-17T14:19:45;10.35;;;1.95;;
30096;SDS011;16915;51.466;3.610;2023-02-17T14:24:47;8.23;;;2.28;;
30096;SDS011;16915;51.466;3.610;2023-02-17T14:27:26;15.80;;;2.10;;
30096;SDS011;16915;51.466;3.610;2023-02-17T14:29:51;15.75;;;2.13;;
30096;SDS011;16915;51.466;3.610;2023-02-17T14:32:50;11.52;;;2.20;;
30096;SDS011;16915;51.466;3.610;2023-02-17T14:37:38;17.92;;;2.28;;
30096;SDS011;16915;51.466;3.610;2023-02-17T14:40:05;6.75;;;1.35;;
30096;SDS011;16915;51.466;3.610;2023-02-17T14:42:40;13.23;;;2.28;;
30096;SDS011;16915;51.466;3.610;2023-02-17T14:45:05;11.77;;;1.90;;
30096;SDS011;16915;51.466;3.610;2023-02-17T14:47:31;10.52;;;2.17;;
30096;SDS011;16915;51.466;3.610;2023-02-17T14:49:57;13.55;;;2.15;;
30096;SDS011;16915;51.466;3.610;2023-02-17T14:52:23;20.10;;;2.30;;
30096;SDS011;16915;51.466;3.610;2023-02-17T14:54:49;13.60;;;2.33;;
30096;SDS011;16915;51.466;3.610;2023-02-17T14:57:15;12.00;;;1.90;;
30096;SDS011;16915;51.466;3.610;2023-02-17T14:59:43;12.00;;;2.90;;
30096;SDS011;16915;51.466;3.610;2023-02-17T15:02:16;13.05;;;2.25;;
30096;SDS011;16915;51.466;3.610;2023-02-17T15:04:43;9.40;;;2.20;;
30096;SDS011;16915;51.466;3.610;2023-02-17T15:07:13;13.75;;;1.90;;
30096;SDS011;16915;51.466;3.610;2023-02-17T15:09:41;14.68;;;2.20;;
30096;SDS011;16915;51.466;3.610;2023-02-17T15:12:16;14.30;;;2.13;;
30096;SDS011;16915;51.466;3.610;2023-02-17T15:14:44;12.57;;;2.30;;
30096;SDS011;16915;51.466;3.610;2023-02-17T15:17:13;19.00;;;3.13;;
30096;SDS011;16915;51.466;3.610;2023-02-17T15:19:40;12.35;;;2.08;;
30096;SDS011;16915;51.466;3.610;2023-02-17T15:22:09;16.25;;;2.58;;
30096;SDS011;16915;51.466;3.610;2023-02-17T15:24:36;18.92;;;2.83;;
30096;SDS011;16915;51.466;3.610;2023-02-17T15:27:03;16.02;;;3.13;;
30096;SDS011;16915;51.466;3.610;2023-02-17T15:29:30;20.45;;;3.25;;
30096;SDS011;16915;51.466;3.610;2023-02-17T15:31:58;15.02;;;3.22;;
30096;SDS011;16915;51.466;3.610;2023-02-17T15:34:26;15.77;;;3.25;;
30096;SDS011;16915;51.466;3.610;2023-02-17T15:36:55;17.33;;;2.20;;
30096;SDS011;16915;51.466;3.610;2023-02-17T15:39:22;11.05;;;1.88;;
30096;SDS011;16915;51.466;3.610;2023-02-17T15:41:48;22.80;;;2.28;;
30096;SDS011;16915;51.466;3.610;2023-02-17T15:44:17;9.98;;;1.83;;
30096;SDS011;16915;51.466;3.610;2023-02-17T15:46:45;16.30;;;2.75;;
30096;SDS011;16915;51.466;3.610;2023-02-17T15:49:13;12.95;;;2.40;;
30096;SDS011;16915;51.466;3.610;2023-02-17T15:51:39;14.80;;;2.60;;
30096;SDS011;16915;51.466;3.610;2023-02-17T15:54:05;16.30;;;2.45;;
30096;SDS011;16915;51.466;3.610;2023-02-17T15:56:38;16.05;;;2.97;;
30096;SDS011;16915;51.466;3.610;2023-02-17T15:59:18;19.25;;;2.55;;
30096;SDS011;16915;51.466;3.610;2023-02-17T16:01:47;20.80;;;2.75;;
30096;SDS011;16915;51.466;3.610;2023-02-17T16:04:14;17.65;;;2.20;;
30096;SDS011;16915;51.466;3.610;2023-02-17T16:06:40;17.58;;;2.25;;
30096;SDS011;16915;51.466;3.610;2023-02-17T16:09:06;21.10;;;2.65;;
30096;SDS011;16915;51.466;3.610;2023-02-17T16:11:32;18.42;;;2.60;;
30096;SDS011;16915;51.466;3.610;2023-02-17T16:13:59;13.18;;;2.17;;
30096;SDS011;16915;51.466;3.610;2023-02-17T16:16:30;13.77;;;2.97;;
30096;SDS011;16915;51.466;3.610;2023-02-17T16:19:00;18.70;;;2.65;;